createdAt,value
2023-03-29T00:01:42.265Z,8.19
2023-03-29T00:04:10.214Z,8.12
2023-03-29T00:06:37.788Z,7.99
2023-03-29T00:09:09.891Z,7.86
2023-03-29T00:11:36.423Z,7.82
2023-03-29T00:14:02.932Z,8.01
2023-03-29T00:16:29.380Z,7.96
2023-03-29T00:18:55.969Z,8.01
2023-03-29T00:21:22.341Z,7.97
2023-03-29T00:23:48.718Z,8.02
2023-03-29T00:26:15.358Z,7.96
2023-03-29T00:28:41.938Z,7.92
2023-03-29T00:31:13.775Z,7.95
2023-03-29T00:33:41.309Z,7.98
2023-03-29T00:36:08.932Z,7.99
2023-03-29T00:38:36.187Z,8.02
2023-03-29T00:41:03.892Z,8.06
2023-03-29T00:43:30.698Z,8.04
2023-03-29T00:45:57.172Z,7.97
2023-03-29T00:48:27.860Z,7.80
2023-03-29T00:50:59.150Z,7.75
2023-03-29T00:53:49.015Z,7.73
2023-03-29T00:56:24.183Z,7.65
2023-03-29T00:58:57.384Z,7.70
2023-03-29T01:01:42.219Z,7.75
2023-03-29T01:04:21.001Z,7.78
2023-03-29T01:06:56.861Z,7.74
2023-03-29T01:09:27.051Z,7.68
2023-03-29T01:11:57.262Z,7.65
2023-03-29T01:14:33.765Z,7.63
2023-03-29T01:17:00.167Z,7.66
2023-03-29T01:19:31.948Z,7.63
2023-03-29T01:22:04.721Z,7.64
2023-03-29T01:24:46.161Z,7.54
2023-03-29T01:27:22.763Z,7.51
2023-03-29T01:29:55.169Z,7.54
2023-03-29T01:32:26.789Z,7.55
2023-03-29T01:34:57.630Z,7.59
2023-03-29T01:37:31.839Z,7.43
2023-03-29T01:39:58.345Z,7.38
2023-03-29T01:42:30.945Z,7.41
2023-03-29T01:45:22.875Z,7.50
2023-03-29T01:48:10.937Z,7.54
2023-03-29T01:50:43.382Z,7.54
2023-03-29T01:53:24.945Z,7.63
2023-03-29T01:55:55.462Z,7.71
2023-03-29T01:58:29.978Z,7.79
2023-03-29T02:00:59.740Z,7.91
2023-03-29T02:03:30.767Z,7.80
2023-03-29T02:05:59.082Z,7.89
2023-03-29T02:08:26.816Z,7.85
2023-03-29T02:10:53.579Z,7.69
2023-03-29T02:13:20.533Z,7.68
2023-03-29T02:15:48.004Z,7.74
2023-03-29T02:18:19.785Z,7.76
2023-03-29T02:20:50.736Z,7.79
2023-03-29T02:23:34.125Z,7.76
2023-03-29T02:26:03.850Z,7.90
2023-03-29T02:28:31.700Z,7.92
2023-03-29T02:31:03.222Z,7.85
2023-03-29T02:34:11.154Z,7.84
2023-03-29T02:36:46.615Z,7.83
2023-03-29T02:39:15.414Z,7.83
2023-03-29T02:41:45.762Z,7.79
2023-03-29T02:44:15.132Z,7.69
2023-03-29T02:46:43.668Z,7.77
2023-03-29T02:49:11.494Z,7.80
2023-03-29T02:51:38.675Z,7.77
2023-03-29T02:54:13.441Z,7.69
2023-03-29T02:56:45.208Z,7.70
2023-03-29T02:59:12.414Z,7.80
2023-03-29T03:01:43.822Z,7.74
2023-03-29T03:04:11.292Z,7.75
2023-03-29T03:06:38.508Z,7.78
2023-03-29T03:09:05.896Z,7.73
2023-03-29T03:11:33.786Z,7.68
2023-03-29T03:14:00.864Z,7.68
2023-03-29T03:16:27.990Z,7.65
2023-03-29T03:18:55.585Z,7.62
2023-03-29T03:21:22.895Z,7.50
2023-03-29T03:23:49.505Z,7.42
2023-03-29T03:26:17.804Z,7.41
2023-03-29T03:28:45.787Z,7.59
2023-03-29T03:31:15.700Z,7.60
2023-03-29T03:33:42.218Z,7.49
2023-03-29T03:36:11.717Z,7.39
2023-03-29T03:38:38.579Z,7.47
2023-03-29T03:41:07.166Z,7.35
2023-03-29T03:43:34.384Z,7.33
2023-03-29T03:46:01.546Z,7.39
2023-03-29T03:48:28.473Z,7.31
2023-03-29T03:50:58.117Z,7.16
2023-03-29T03:53:26.427Z,7.12
2023-03-29T03:55:55.834Z,7.25
2023-03-29T03:58:22.734Z,7.14
2023-03-29T04:00:50.481Z,7.17
2023-03-29T04:03:17.989Z,7.12
2023-03-29T04:05:45.585Z,7.12
2023-03-29T04:08:13.129Z,7.01
2023-03-29T04:10:39.564Z,7.08
2023-03-29T04:13:06.559Z,7.05
2023-03-29T04:15:35.705Z,6.92
2023-03-29T04:18:02.174Z,6.76
2023-03-29T04:20:28.913Z,6.85
2023-03-29T04:22:55.316Z,6.96
2023-03-29T04:25:22.259Z,6.95
2023-03-29T04:27:50.391Z,6.97
2023-03-29T04:30:17.195Z,6.95
2023-03-29T04:32:43.593Z,6.89
2023-03-29T04:35:10.105Z,6.97
2023-03-29T04:37:40.221Z,7.02
2023-03-29T04:40:14.246Z,6.96
2023-03-29T04:42:45.798Z,6.86
2023-03-29T04:45:17.935Z,6.86
2023-03-29T04:47:45.647Z,6.85
2023-03-29T04:50:13.749Z,6.84
2023-03-29T04:52:40.859Z,6.91
2023-03-29T04:55:07.886Z,6.82
2023-03-29T04:57:34.279Z,6.56
2023-03-29T05:00:00.683Z,6.67
2023-03-29T05:02:27.223Z,6.85
2023-03-29T05:04:53.612Z,6.85
2023-03-29T05:07:19.996Z,6.81
2023-03-29T05:09:46.380Z,6.81
2023-03-29T05:12:12.977Z,6.82
2023-03-29T05:14:39.566Z,6.88
2023-03-29T05:17:06.555Z,6.82
2023-03-29T05:19:33.600Z,6.73
2023-03-29T05:22:00.703Z,6.74
2023-03-29T05:24:27.273Z,6.79
2023-03-29T05:26:53.629Z,6.69
2023-03-29T05:29:20.236Z,6.71
2023-03-29T05:31:47.162Z,6.69
2023-03-29T05:34:13.758Z,6.82
2023-03-29T05:36:40.278Z,6.93
2023-03-29T05:39:07.122Z,6.89
2023-03-29T05:41:34.415Z,6.79
2023-03-29T05:44:00.936Z,6.79
2023-03-29T05:46:27.800Z,6.77
2023-03-29T05:48:54.505Z,6.94
2023-03-29T05:51:24.204Z,6.99
2023-03-29T05:53:51.990Z,7.01
2023-03-29T05:56:19.027Z,7.09
2023-03-29T05:58:46.714Z,7.13
2023-03-29T06:01:14.418Z,7.21
2023-03-29T06:03:41.180Z,7.31
2023-03-29T06:06:09.443Z,7.29
2023-03-29T06:08:36.354Z,7.34
2023-03-29T06:11:06.005Z,7.27
2023-03-29T06:13:37.700Z,7.26
2023-03-29T06:16:05.704Z,7.35
2023-03-29T06:18:33.208Z,7.44
2023-03-29T06:21:00.716Z,7.50
2023-03-29T06:23:27.453Z,7.47
2023-03-29T06:25:55.166Z,7.45
2023-03-29T06:28:22.642Z,7.49
2023-03-29T06:30:50.161Z,7.57
2023-03-29T06:33:16.962Z,7.58
2023-03-29T06:35:46.623Z,7.78
2023-03-29T06:38:13.679Z,7.78
2023-03-29T06:40:40.149Z,7.79
2023-03-29T06:43:06.917Z,7.75
2023-03-29T06:45:36.257Z,7.80
2023-03-29T06:48:04.377Z,7.84
2023-03-29T06:50:31.187Z,7.84
2023-03-29T06:52:57.887Z,7.83
2023-03-29T06:55:25.923Z,7.87
2023-03-29T06:57:53.893Z,7.93
2023-03-29T07:00:29.860Z,7.96
2023-03-29T07:02:58.478Z,8.15
2023-03-29T07:05:28.180Z,8.50
2023-03-29T07:07:56.954Z,8.81
2023-03-29T07:10:28.041Z,9.14
2023-03-29T07:12:55.170Z,9.45
2023-03-29T07:15:21.940Z,9.66
2023-03-29T07:17:49.406Z,9.80
2023-03-29T07:20:16.592Z,9.97
2023-03-29T07:22:44.473Z,10.12
2023-03-29T07:25:12.307Z,10.25
2023-03-29T07:27:40.809Z,10.39
2023-03-29T07:30:11.172Z,10.52
2023-03-29T07:32:39.116Z,10.68
2023-03-29T07:35:07.477Z,10.85
2023-03-29T07:37:36.450Z,10.93
2023-03-29T07:40:08.954Z,10.81
2023-03-29T07:42:38.667Z,10.76
2023-03-29T07:45:07.121Z,10.61
2023-03-29T07:47:33.523Z,10.36
2023-03-29T07:49:59.920Z,10.16
2023-03-29T07:52:28.861Z,10.21
2023-03-29T07:54:55.971Z,10.17
2023-03-29T07:57:24.224Z,10.11
2023-03-29T07:59:50.900Z,10.07
2023-03-29T08:02:17.327Z,10.09
2023-03-29T08:04:43.817Z,10.03
2023-03-29T08:07:10.298Z,9.96
2023-03-29T08:09:37.351Z,9.98
2023-03-29T08:12:04.215Z,9.99
2023-03-29T08:14:31.175Z,10.06
2023-03-29T08:16:57.629Z,10.00
2023-03-29T08:19:24.183Z,9.97
2023-03-29T08:21:50.648Z,10.06
2023-03-29T08:24:19.094Z,9.99
2023-03-29T08:26:47.047Z,9.92
2023-03-29T08:29:13.489Z,9.93
2023-03-29T08:31:39.988Z,9.92
2023-03-29T08:34:07.012Z,9.95
2023-03-29T08:36:33.616Z,10.00
2023-03-29T08:39:01.862Z,10.11
2023-03-29T08:41:52.203Z,10.07
2023-03-29T08:44:31.847Z,9.98
2023-03-29T08:47:26.972Z,9.94
2023-03-29T08:49:56.270Z,10.12
2023-03-29T08:52:32.939Z,10.20
2023-03-29T08:55:01.895Z,10.37
2023-03-29T08:57:34.891Z,10.38
2023-03-29T09:00:05.816Z,10.47
2023-03-29T09:02:35.963Z,10.56
2023-03-29T09:05:14.894Z,10.59
2023-03-29T09:07:42.049Z,10.70
2023-03-29T09:10:15.380Z,10.76
2023-03-29T09:13:07.633Z,10.82
2023-03-29T09:15:44.310Z,10.91
2023-03-29T09:18:35.312Z,11.02
2023-03-29T09:21:11.307Z,11.13
2023-03-29T09:23:58.812Z,11.24
2023-03-29T09:26:47.669Z,11.30
2023-03-29T09:29:19.803Z,11.38
2023-03-29T09:31:48.491Z,11.39
2023-03-29T09:34:22.848Z,11.46
2023-03-29T09:36:55.050Z,11.51
2023-03-29T09:39:22.636Z,11.54
2023-03-29T09:42:09.300Z,11.54
2023-03-29T09:44:40.790Z,11.56
2023-03-29T09:47:20.606Z,11.62
2023-03-29T09:49:51.689Z,11.68
2023-03-29T09:52:19.981Z,11.74
2023-03-29T09:54:46.533Z,11.71
2023-03-29T09:57:16.499Z,11.77
2023-03-29T09:59:45.646Z,11.68
2023-03-29T10:02:13.620Z,11.74
2023-03-29T10:04:42.484Z,11.80
2023-03-29T10:07:20.512Z,11.80
2023-03-29T10:09:51.822Z,11.82
2023-03-29T10:12:19.895Z,11.87
2023-03-29T10:14:51.505Z,11.95
2023-03-29T10:17:23.658Z,12.01
2023-03-29T10:19:58.386Z,12.11
2023-03-29T10:22:27.656Z,12.10
2023-03-29T10:24:57.098Z,12.21
2023-03-29T10:27:31.988Z,12.21
2023-03-29T10:30:00.237Z,12.23
2023-03-29T10:32:36.687Z,12.30
2023-03-29T10:35:15.630Z,12.27
2023-03-29T10:37:49.632Z,12.34
2023-03-29T10:40:26.142Z,12.34
2023-03-29T10:42:57.544Z,12.35
2023-03-29T10:45:35.032Z,12.37
2023-03-29T10:48:03.906Z,12.45
2023-03-29T10:50:35.865Z,12.62
2023-03-29T10:53:03.355Z,12.64
2023-03-29T10:55:39.757Z,12.68
2023-03-29T10:58:24.759Z,12.63
2023-03-29T11:00:56.970Z,12.65
2023-03-29T11:03:40.579Z,12.64
2023-03-29T11:06:14.127Z,12.67
2023-03-29T11:08:53.831Z,12.67
2023-03-29T11:11:30.970Z,12.67
2023-03-29T11:14:04.391Z,12.67
2023-03-29T11:16:33.877Z,12.78
2023-03-29T11:19:16.165Z,12.73
2023-03-29T11:22:13.776Z,12.90
2023-03-29T11:24:55.886Z,12.95
2023-03-29T11:27:40.411Z,13.03
2023-03-29T11:30:35.157Z,12.90
2023-03-29T11:33:41.607Z,13.03
2023-03-29T11:36:37.347Z,13.16
2023-03-29T11:39:17.283Z,13.18
2023-03-29T11:41:48.132Z,13.28
2023-03-29T11:44:24.298Z,13.35
2023-03-29T11:47:07.167Z,13.23
2023-03-29T11:49:57.384Z,13.18
2023-03-29T11:52:33.623Z,13.11
2023-03-29T11:55:10.615Z,13.29
2023-03-29T11:57:42.686Z,13.48
2023-03-29T12:00:15.610Z,13.62
2023-03-29T12:02:59.508Z,13.53
2023-03-29T12:05:45.534Z,13.49
2023-03-29T12:08:38.414Z,13.48
2023-03-29T12:11:23.147Z,13.53
2023-03-29T12:14:15.501Z,13.57
2023-03-29T12:16:48.013Z,13.60
2023-03-29T12:19:21.525Z,13.46
2023-03-29T12:21:49.255Z,13.47
2023-03-29T12:24:18.767Z,13.50
2023-03-29T12:27:27.362Z,13.72
2023-03-29T12:30:13.016Z,13.65
2023-03-29T12:32:47.247Z,13.76
2023-03-29T12:35:26.516Z,13.80
2023-03-29T12:38:02.505Z,13.70
2023-03-29T12:40:39.367Z,13.76
2023-03-29T12:43:08.880Z,13.72
2023-03-29T12:45:42.782Z,13.86
2023-03-29T12:48:17.343Z,13.93
2023-03-29T12:50:52.377Z,13.88
2023-03-29T12:53:22.775Z,14.07
2023-03-29T12:55:55.005Z,14.03
2023-03-29T12:58:36.622Z,14.15
2023-03-29T13:01:09.411Z,14.28
2023-03-29T13:03:44.180Z,14.27
2023-03-29T13:06:11.471Z,14.18
2023-03-29T13:08:43.636Z,14.23
2023-03-29T13:11:27.459Z,14.16
2023-03-29T13:13:54.042Z,14.20
2023-03-29T13:16:33.557Z,14.26
2023-03-29T13:19:18.295Z,14.16
2023-03-29T13:22:07.557Z,14.23
2023-03-29T13:24:49.059Z,14.17
2023-03-29T13:27:43.000Z,14.47
2023-03-29T13:30:20.021Z,14.51
2023-03-29T13:33:01.537Z,14.50
2023-03-29T13:35:45.166Z,14.47
2023-03-29T13:38:27.671Z,14.45
2023-03-29T13:40:53.996Z,14.67
2023-03-29T13:43:34.646Z,14.71
2023-03-29T13:46:01.314Z,14.80
2023-03-29T13:48:49.316Z,14.64
2023-03-29T13:51:18.448Z,14.71
2023-03-29T13:53:54.724Z,14.69
2023-03-29T13:56:34.634Z,14.67
2023-03-29T13:59:15.476Z,14.71
2023-03-29T14:01:49.201Z,14.84
2023-03-29T14:04:25.458Z,14.76
2023-03-29T14:06:55.035Z,14.68
2023-03-29T14:09:28.077Z,14.64
2023-03-29T14:11:54.538Z,14.69
2023-03-29T14:14:26.883Z,14.79
2023-03-29T14:16:56.253Z,14.94
2023-03-29T14:19:36.136Z,14.89
2023-03-29T14:22:09.842Z,14.93
2023-03-29T14:24:47.984Z,14.98
2023-03-29T14:27:15.753Z,14.98
2023-03-29T14:29:45.893Z,14.96
2023-03-29T14:32:16.490Z,14.97
2023-03-29T14:34:43.665Z,14.90
2023-03-29T14:37:13.000Z,14.96
2023-03-29T14:39:41.086Z,14.99
2023-03-29T14:42:17.018Z,14.96
2023-03-29T14:44:44.800Z,14.91
2023-03-29T14:47:20.462Z,14.91
2023-03-29T14:49:47.037Z,14.94
2023-03-29T14:52:14.301Z,14.93
2023-03-29T14:54:45.625Z,14.93
2023-03-29T14:57:16.460Z,14.81
2023-03-29T14:59:43.458Z,14.92
2023-03-29T15:02:23.266Z,14.89
2023-03-29T15:05:04.667Z,15.02
2023-03-29T15:07:33.440Z,14.96
2023-03-29T15:10:02.254Z,14.86
2023-03-29T15:12:30.672Z,14.82
2023-03-29T15:14:58.055Z,14.79
2023-03-29T15:17:47.567Z,14.95
2023-03-29T15:20:29.002Z,14.84
2023-03-29T15:22:58.183Z,15.02
2023-03-29T15:25:28.276Z,15.10
2023-03-29T15:27:58.964Z,15.08
2023-03-29T15:30:45.071Z,14.98
2023-03-29T15:33:18.969Z,14.90
2023-03-29T15:35:50.361Z,14.84
2023-03-29T15:38:17.062Z,14.93
2023-03-29T15:40:43.703Z,15.03
2023-03-29T15:43:11.057Z,14.95
2023-03-29T15:45:37.476Z,14.89
2023-03-29T15:48:14.082Z,14.87
2023-03-29T15:50:40.455Z,14.86
2023-03-29T15:53:15.052Z,14.76
2023-03-29T15:55:45.710Z,14.77
2023-03-29T15:58:15.115Z,14.73
2023-03-29T16:00:44.343Z,14.73
2023-03-29T16:03:15.244Z,14.74
2023-03-29T16:05:43.441Z,14.79
2023-03-29T16:08:13.848Z,14.70
2023-03-29T16:10:41.189Z,14.68
2023-03-29T16:13:07.742Z,14.72
2023-03-29T16:15:36.808Z,14.70
2023-03-29T16:18:03.652Z,14.67
2023-03-29T16:20:30.408Z,14.64
2023-03-29T16:22:56.761Z,14.58
2023-03-29T16:25:23.839Z,14.60
2023-03-29T16:27:51.111Z,14.51
2023-03-29T16:30:17.550Z,14.43
2023-03-29T16:32:44.107Z,14.41
2023-03-29T16:35:27.048Z,14.40
2023-03-29T16:37:53.815Z,14.42
2023-03-29T16:40:21.036Z,14.40
2023-03-29T16:42:47.995Z,14.34
2023-03-29T16:45:14.910Z,14.28
2023-03-29T16:47:44.923Z,14.22
2023-03-29T16:50:12.781Z,14.15
2023-03-29T16:52:39.875Z,14.04
2023-03-29T16:55:08.138Z,13.96
2023-03-29T16:57:35.670Z,13.89
2023-03-29T17:00:02.339Z,13.83
2023-03-29T17:02:28.730Z,13.74
2023-03-29T17:04:55.382Z,13.71
2023-03-29T17:07:21.855Z,13.64
2023-03-29T17:09:48.221Z,13.54
2023-03-29T17:12:14.742Z,13.56
2023-03-29T17:14:41.885Z,13.56
2023-03-29T17:17:08.407Z,13.55
2023-03-29T17:19:34.909Z,13.49
2023-03-29T17:22:01.349Z,13.47
2023-03-29T17:24:27.798Z,13.43
2023-03-29T17:26:54.249Z,13.44
2023-03-29T17:29:20.655Z,13.33
2023-03-29T17:31:47.666Z,13.23
2023-03-29T17:34:15.545Z,13.16
2023-03-29T17:36:42.027Z,13.12
2023-03-29T17:39:09.492Z,13.06
2023-03-29T17:41:36.536Z,12.98
2023-03-29T17:44:03.220Z,12.90
2023-03-29T17:46:30.291Z,12.88
2023-03-29T17:48:59.020Z,12.84
2023-03-29T17:51:25.737Z,12.79
2023-03-29T17:53:52.628Z,12.80
2023-03-29T17:56:22.801Z,12.87
2023-03-29T17:58:50.033Z,12.83
2023-03-29T18:01:19.524Z,12.79
2023-03-29T18:03:50.481Z,12.79
2023-03-29T18:06:20.070Z,12.76
2023-03-29T18:08:46.839Z,12.73
2023-03-29T18:11:18.765Z,12.68
2023-03-29T18:13:45.839Z,12.67
2023-03-29T18:16:12.277Z,12.67
2023-03-29T18:18:38.713Z,12.69
2023-03-29T18:21:06.867Z,12.69
2023-03-29T18:23:33.856Z,12.67
2023-03-29T18:26:04.454Z,12.67
2023-03-29T18:28:31.234Z,12.69
2023-03-29T18:30:58.330Z,12.65
2023-03-29T18:33:25.235Z,12.59
2023-03-29T18:35:51.866Z,12.58
2023-03-29T18:38:20.276Z,12.54
2023-03-29T18:40:50.437Z,12.45
2023-03-29T18:43:16.965Z,12.51
2023-03-29T18:45:44.414Z,12.48
2023-03-29T18:48:11.228Z,12.48
2023-03-29T18:50:38.715Z,12.48
2023-03-29T18:53:05.302Z,12.46
2023-03-29T18:55:31.751Z,12.45
2023-03-29T18:57:58.137Z,12.45
2023-03-29T19:00:25.080Z,12.48
2023-03-29T19:02:51.626Z,12.45
2023-03-29T19:05:18.222Z,12.41
2023-03-29T19:07:44.619Z,12.40
2023-03-29T19:10:12.032Z,12.38
2023-03-29T19:12:38.518Z,12.36
2023-03-29T19:15:05.623Z,12.44
2023-03-29T19:17:32.074Z,12.44
2023-03-29T19:19:58.808Z,12.43
2023-03-29T19:22:25.305Z,12.38
2023-03-29T19:24:51.742Z,12.34
2023-03-29T19:27:18.527Z,12.37
2023-03-29T19:29:46.086Z,12.33
2023-03-29T19:32:12.479Z,12.32
2023-03-29T19:34:38.873Z,12.32
2023-03-29T19:37:05.333Z,12.28
2023-03-29T19:39:31.998Z,12.16
2023-03-29T19:41:58.389Z,12.09
2023-03-29T19:44:24.937Z,12.07
2023-03-29T19:46:51.755Z,12.10
2023-03-29T19:49:18.715Z,12.14
2023-03-29T19:51:45.240Z,12.13
2023-03-29T19:54:17.197Z,12.12
2023-03-29T19:56:43.879Z,12.09
2023-03-29T19:59:14.610Z,12.07
2023-03-29T20:01:43.921Z,12.06
2023-03-29T20:04:11.805Z,12.05
2023-03-29T20:06:38.352Z,12.07
2023-03-29T20:09:05.303Z,12.02
2023-03-29T20:11:31.781Z,12.01
2023-03-29T20:13:58.196Z,11.96
2023-03-29T20:16:26.019Z,11.95
2023-03-29T20:18:53.942Z,11.90
2023-03-29T20:21:20.562Z,11.93
2023-03-29T20:23:47.349Z,11.95
2023-03-29T20:26:14.129Z,11.92
2023-03-29T20:28:40.563Z,11.92
2023-03-29T20:31:10.592Z,11.90
2023-03-29T20:33:37.156Z,11.86
2023-03-29T20:36:04.526Z,11.86
2023-03-29T20:38:31.297Z,11.80
2023-03-29T20:40:57.741Z,11.78
2023-03-29T20:43:24.246Z,11.79
2023-03-29T20:45:53.965Z,11.70
2023-03-29T20:48:24.077Z,11.62
2023-03-29T20:50:50.831Z,11.64
2023-03-29T20:53:18.272Z,11.67
2023-03-29T20:55:44.952Z,11.62
2023-03-29T20:58:11.527Z,11.56
2023-03-29T21:00:38.224Z,11.52
2023-03-29T21:03:04.834Z,11.45
2023-03-29T21:05:33.309Z,11.48
2023-03-29T21:07:59.992Z,11.47
2023-03-29T21:10:28.024Z,11.47
2023-03-29T21:12:54.635Z,11.43
2023-03-29T21:15:21.312Z,11.38
2023-03-29T21:17:47.862Z,11.42
2023-03-29T21:20:15.430Z,11.38
2023-03-29T21:22:45.754Z,11.35
2023-03-29T21:25:15.532Z,11.32
2023-03-29T21:27:42.874Z,11.40
2023-03-29T21:30:09.877Z,11.42
2023-03-29T21:32:36.706Z,11.33
2023-03-29T21:35:03.278Z,11.30
2023-03-29T21:37:29.661Z,11.31
2023-03-29T21:39:56.051Z,11.33
2023-03-29T21:42:22.556Z,11.40
2023-03-29T21:44:48.955Z,11.45
2023-03-29T21:47:15.357Z,11.43
2023-03-29T21:49:41.738Z,11.45
2023-03-29T21:52:08.234Z,11.50
2023-03-29T21:54:34.805Z,11.48
2023-03-29T21:57:01.282Z,11.49
2023-03-29T21:59:27.943Z,11.46
2023-03-29T22:01:54.504Z,11.48
2023-03-29T22:04:35.395Z,11.48
2023-03-29T22:07:03.403Z,11.50
2023-03-29T22:09:29.791Z,11.48
2023-03-29T22:11:56.872Z,11.48
2023-03-29T22:14:23.231Z,11.54
2023-03-29T22:16:49.665Z,11.53
2023-03-29T22:19:16.039Z,11.53
2023-03-29T22:21:42.436Z,11.49
2023-03-29T22:24:08.845Z,11.49
2023-03-29T22:26:35.468Z,11.61
2023-03-29T22:29:02.186Z,11.54
2023-03-29T22:31:29.773Z,11.52
2023-03-29T22:33:56.748Z,11.51
2023-03-29T22:36:26.114Z,11.51
2023-03-29T22:38:53.431Z,11.50
2023-03-29T22:41:24.749Z,11.48
2023-03-29T22:43:54.971Z,11.49
2023-03-29T22:46:22.208Z,11.48
2023-03-29T22:48:49.375Z,11.48
2023-03-29T22:51:16.202Z,11.50
2023-03-29T22:53:42.594Z,11.46
2023-03-29T22:56:09.567Z,11.43
2023-03-29T22:58:37.102Z,11.38
2023-03-29T23:01:04.174Z,11.30
2023-03-29T23:03:31.055Z,11.20
2023-03-29T23:05:59.112Z,11.20
2023-03-29T23:08:26.216Z,11.17
2023-03-29T23:10:52.607Z,11.12
2023-03-29T23:13:28.587Z,11.10
2023-03-29T23:15:59.248Z,11.14
2023-03-29T23:18:27.600Z,11.06
2023-03-29T23:20:56.439Z,11.01
2023-03-29T23:23:24.404Z,11.01
2023-03-29T23:25:52.334Z,10.95
2023-03-29T23:28:21.775Z,10.86
2023-03-29T23:30:58.516Z,10.79
2023-03-29T23:33:25.818Z,10.80
2023-03-29T23:35:53.084Z,10.84
2023-03-29T23:38:19.958Z,10.74
2023-03-29T23:40:58.811Z,10.78
2023-03-29T23:43:27.214Z,10.72
2023-03-29T23:45:57.520Z,10.81
2023-03-29T23:48:24.328Z,10.79
2023-03-29T23:50:50.734Z,10.70
2023-03-29T23:53:17.561Z,10.69
2023-03-29T23:55:44.616Z,10.68
2023-03-29T23:58:11.611Z,10.79
